YHLM weather

Hillman Farm Airport
Western Australia, Australia

Public forecast

Using degrees Celsius for public forecast. Weather courtesy of forecast.io.

Closest aviation weather report (METAR) to Hillman Farm Airport

Closest report is Perth Jandakot Airport, 84.5 nm (156.4 km) NW. Retrieved 2020/06/05 12:00 UTC (24 minutes ago):

YPJT 051200Z AUTO 10007KT 9999 // NCD 18/12 Q1023 RF000/0000

Closest aviation forecast (TAF) to Hillman Farm Airport

Closest forecast is Perth Jandakot Airport, 84.5 nm (156.4 km) NW. Retrieved 2020/06/05 12:00 UTC (24 minutes ago):

TAF YPJT 051056Z 0512/0606 07010KT 9999 FU NSC FM060300 02010KT CAVOK